Terminal Aerodrome Forecast
Issued by NWS Midland/Odessa, TX

Home | Current Version | Previous Version | Text Only | Print | Product List | Glossary On
Versions: 1 2 3 4 5 6 7 8 9 10 11 12 13 14 15 16 17 18 19 20 21 22 23 24
000
FTUS44 KMAF 071731 AAA
TAFMAF
TAF AMD
KMAF 071731Z 0718/0818 36008KT P6SM SCT020 OVC100
      TEMPO 0718/0722 VRB15G25KT 3SM TSRA BKN025CB
     FM072200 03010KT P6SM BKN040
     FM080600 VRB05KT P6SM BKN020=

USA.gov is the U.S. government's official web portal to all federal, state and local government web resources and services.